Time;durP1;ratioP1;P1;durP2;ratioP2;P2;SDS_P1;SDS_P2;PMS_P1;PMS_P2;Temp;Humidity;BMP_temperature;BMP_pressure;BME280_temperature;BME280_humidity;BME280_pressure;Samples;Min_cycle;Max_cycle;Signal;HPM_P1;HPM_P2
2021/01/13 00:00:09;;;;;;;2.80;1.42;;;6.90;99.90;;;;;;5084181;28;20027;-59
2021/01/13 00:02:34;;;;;;;1.52;1.40;;;6.80;99.90;;;;;;5085352;28;20020;-59
2021/01/13 00:05:00;;;;;;;3.63;1.60;;;6.90;99.90;;;;;;5087389;28;20476;-60
2021/01/13 00:07:26;;;;;;;2.65;1.90;;;6.80;99.90;;;;;;5088881;28;20554;-59
2021/01/13 00:09:52;;;;;;;5.60;2.30;;;6.90;99.90;;;;;;5088727;28;20032;-59
2021/01/13 00:12:17;;;;;;;3.92;1.98;;;6.80;99.90;;;;;;5086903;28;20024;-59
2021/01/13 00:14:43;;;;;;;2.50;1.80;;;6.90;99.90;;;;;;5090979;28;20095;-59
2021/01/13 00:17:10;;;;;;;4.45;1.88;;;6.90;99.90;;;;;;5088167;28;20048;-59
2021/01/13 00:19:36;;;;;;;2.38;1.67;;;6.90;99.90;;;;;;5090385;28;20472;-59
2021/01/13 00:22:03;;;;;;;1.92;1.63;;;7.00;99.90;;;;;;5084801;28;20028;-59
2021/01/13 00:24:29;;;;;;;3.55;1.80;;;7.00;99.90;;;;;;5090463;28;20493;-59
2021/01/13 00:27:00;;;;;;;2.53;1.80;;;7.00;99.90;;;;;;5083265;28;20032;-59
2021/01/13 00:29:26;;;;;;;3.05;1.50;;;6.80;99.90;;;;;;5090246;28;20403;-59
2021/01/13 00:31:58;;;;;;;5.68;2.13;;;7.00;99.90;;;;;;5083014;28;20020;-59
2021/01/13 00:34:25;;;;;;;2.65;1.70;;;6.90;99.90;;;;;;5090395;28;20044;-59
2021/01/13 00:36:50;;;;;;;1.73;1.50;;;6.90;99.90;;;;;;5090726;28;20016;-59
2021/01/13 00:39:16;;;;;;;3.80;1.83;;;6.90;99.90;;;;;;5091297;28;20027;-60
2021/01/13 00:41:42;;;;;;;2.08;1.52;;;7.00;99.90;;;;;;5086088;28;20024;-59
2021/01/13 00:44:08;;;;;;;3.30;1.77;;;7.00;99.90;;;;;;5091832;28;20081;-59
2021/01/13 00:46:43;;;;;;;3.88;1.58;;;6.90;99.90;;;;;;5086518;28;20039;-59
2021/01/13 00:49:11;;;;;;;3.88;1.30;;;6.90;99.90;;;;;;5091861;28;20024;-59
2021/01/13 00:51:39;;;;;;;2.55;1.60;;;6.90;99.90;;;;;;5085606;28;20039;-58
2021/01/13 00:54:06;;;;;;;2.58;1.60;;;6.90;99.90;;;;;;5091421;28;20476;-59
2021/01/13 00:56:33;;;;;;;3.60;1.50;;;6.80;99.90;;;;;;5084570;28;20384;-59
2021/01/13 00:58:59;;;;;;;3.00;1.55;;;7.00;99.90;;;;;;5089803;28;20044;-59
2021/01/13 01:01:26;;;;;;;4.57;1.63;;;6.90;99.90;;;;;;5087460;28;20622;-59
2021/01/13 01:03:54;;;;;;;4.30;1.48;;;7.00;99.90;;;;;;5087922;28;20039;-59
2021/01/13 01:06:20;;;;;;;5.00;1.55;;;7.00;99.90;;;;;;5085168;28;20023;-59
2021/01/13 01:08:45;;;;;;;2.15;1.40;;;7.00;99.90;;;;;;5091380;28;20095;-59
2021/01/13 01:11:11;;;;;;;4.32;1.33;;;7.00;99.90;;;;;;5089569;28;20473;-59
2021/01/13 01:13:37;;;;;;;2.55;1.00;;;6.80;99.90;;;;;;5090795;28;20020;-59
2021/01/13 01:16:03;;;;;;;3.03;1.70;;;7.10;99.90;;;;;;5085857;28;20365;-59
2021/01/13 01:18:29;;;;;;;4.03;1.25;;;7.00;99.90;;;;;;5086479;28;20494;-59
2021/01/13 01:20:55;;;;;;;3.90;1.35;;;7.00;99.90;;;;;;5084420;28;20032;-59
2021/01/13 01:23:20;;;;;;;2.25;1.10;;;7.00;99.90;;;;;;5091067;28;20421;-59
2021/01/13 01:25:46;;;;;;;1.70;1.17;;;7.00;99.90;;;;;;5084765;28;20024;-58
2021/01/13 01:28:12;;;;;;;1.90;1.23;;;7.10;99.90;;;;;;5085156;28;20063;-59
2021/01/13 01:30:37;;;;;;;2.03;1.13;;;6.90;99.90;;;;;;5077632;28;20031;-59
2021/01/13 01:33:03;;;;;;;3.08;1.77;;;7.10;99.90;;;;;;5085230;28;20051;-59
2021/01/13 01:35:29;;;;;;;2.25;1.38;;;7.20;99.90;;;;;;5088805;28;20019;-59
2021/01/13 01:37:54;;;;;;;2.97;1.27;;;7.10;99.90;;;;;;5090042;28;20362;-59
2021/01/13 01:40:20;;;;;;;2.47;1.20;;;7.10;99.90;;;;;;5087453;28;20042;-59
2021/01/13 01:42:56;;;;;;;2.45;1.40;;;7.30;99.90;;;;;;5090693;28;20081;-60
2021/01/13 01:45:25;;;;;;;4.05;1.25;;;7.10;99.90;;;;;;5084367;28;20077;-59
2021/01/13 01:48:14;;;;;;;3.45;1.20;;;7.00;99.90;;;;;;5090630;28;20590;-60
2021/01/13 01:50:45;;;;;;;2.35;1.17;;;7.20;99.90;;;;;;5079418;28;20114;-59
2021/01/13 01:53:13;;;;;;;5.32;1.10;;;7.10;99.90;;;;;;5088570;28;20028;-59
2021/01/13 01:56:17;;;;;;;2.33;1.25;;;7.30;99.90;;;;;;5086918;28;20028;-59
2021/01/13 01:58:48;;;;;;;0.88;0.85;;;7.20;99.90;;;;;;5087182;28;20024;-59
2021/01/13 02:01:17;;;;;;;2.55;1.00;;;7.10;99.90;;;;;;5085260;28;20354;-59
2021/01/13 02:03:47;;;;;;;4.30;1.10;;;7.20;99.90;;;;;;5086387;28;20032;-60
2021/01/13 02:06:17;;;;;;;0.85;0.70;;;7.20;99.90;;;;;;5084154;28;20511;-60
2021/01/13 02:08:44;;;;;;;1.88;0.90;;;7.10;99.90;;;;;;5084340;28;20016;-60
2021/01/13 02:11:17;;;;;;;2.70;1.10;;;7.20;99.90;;;;;;5088156;28;20035;-60
2021/01/13 02:13:47;;;;;;;1.35;0.93;;;7.10;99.90;;;;;;5089193;28;20120;-60
2021/01/13 02:16:17;;;;;;;2.60;0.98;;;7.10;99.90;;;;;;5083571;28;20063;-60
2021/01/13 02:18:48;;;;;;;4.38;1.17;;;7.20;99.90;;;;;;5090032;28;20031;-59
2021/01/13 02:21:21;;;;;;;1.65;1.08;;;7.20;99.90;;;;;;5080043;28;20024;-60
2021/01/13 02:24:18;;;;;;;2.53;0.80;;;7.10;99.90;;;;;;5076970;28;20511;-60
2021/01/13 02:27:25;;;;;;;2.72;0.90;;;7.10;99.90;;;;;;5078369;28;20030;-59
2021/01/13 02:30:00;;;;;;;1.17;1.08;;;7.10;99.90;;;;;;5084155;28;20491;-59
2021/01/13 02:32:32;;;;;;;2.90;0.82;;;7.10;99.90;;;;;;5078698;28;20118;-59
2021/01/13 02:35:09;;;;;;;2.35;1.10;;;7.20;99.90;;;;;;5081478;28;20063;-59
2021/01/13 02:37:35;;;;;;;4.03;1.17;;;7.20;99.90;;;;;;5087942;28;20024;-60
2021/01/13 02:40:17;;;;;;;2.30;1.05;;;7.20;99.90;;;;;;5085674;28;20039;-59
2021/01/13 02:42:59;;;;;;;1.98;1.20;;;7.00;99.90;;;;;;5085993;28;20386;-59
2021/01/13 02:45:27;;;;;;;1.60;1.20;;;7.20;99.90;;;;;;5087644;28;20046;-60
2021/01/13 02:48:02;;;;;;;3.80;1.05;;;7.10;99.90;;;;;;5088310;28;20048;-59
2021/01/13 02:50:34;;;;;;;3.10;1.00;;;7.00;99.90;;;;;;5083069;28;20043;-59
2021/01/13 02:53:07;;;;;;;2.45;1.15;;;7.10;99.90;;;;;;5089674;28;20050;-59
2021/01/13 02:55:39;;;;;;;1.08;0.88;;;7.20;99.90;;;;;;5083035;28;20024;-59
2021/01/13 02:58:08;;;;;;;2.30;1.10;;;7.00;99.90;;;;;;5089464;28;20500;-59
2021/01/13 03:00:36;;;;;;;1.90;0.80;;;7.10;99.90;;;;;;5084233;28;20024;-59
2021/01/13 03:03:02;;;;;;;1.02;0.80;;;7.00;99.90;;;;;;5085994;28;20111;-60
2021/01/13 03:05:29;;;;;;;3.13;0.98;;;7.10;99.90;;;;;;5083511;28;20513;-59
2021/01/13 03:07:58;;;;;;;2.15;1.20;;;7.00;99.90;;;;;;5089541;28;20020;-59
2021/01/13 03:10:26;;;;;;;1.90;0.93;;;7.00;99.90;;;;;;5086461;28;20119;-60
2021/01/13 03:13:03;;;;;;;2.53;1.00;;;7.00;99.90;;;;;;5081715;28;20504;-59
2021/01/13 03:15:31;;;;;;;2.80;0.90;;;7.10;99.90;;;;;;5083529;28;20029;-59
2021/01/13 03:18:00;;;;;;;1.10;0.80;;;7.00;99.90;;;;;;5089200;28;20048;-60
2021/01/13 03:20:42;;;;;;;2.58;0.98;;;7.00;99.90;;;;;;5086041;28;20030;-59
2021/01/13 03:23:14;;;;;;;1.10;1.00;;;7.10;99.90;;;;;;5087377;28;20073;-59
2021/01/13 03:26:02;;;;;;;1.60;1.00;;;7.00;99.90;;;;;;5085067;28;20020;-59
2021/01/13 03:28:33;;;;;;;3.05;1.10;;;7.10;99.90;;;;;;5086028;28;20046;-59
2021/01/13 03:31:00;;;;;;;2.60;1.15;;;7.20;99.90;;;;;;5083985;28;20032;-62
2021/01/13 03:33:39;;;;;;;1.40;0.82;;;7.00;99.90;;;;;;5085126;28;20066;-59
2021/01/13 03:36:49;;;;;;;1.85;1.00;;;6.90;99.90;;;;;;5078489;28;20124;-59
2021/01/13 03:39:20;;;;;;;1.20;0.70;;;7.10;99.90;;;;;;5072840;28;20532;-59
2021/01/13 03:42:04;;;;;;;1.30;0.90;;;7.00;99.90;;;;;;5085274;28;20074;-59
2021/01/13 03:44:35;;;;;;;1.85;0.70;;;7.10;99.90;;;;;;5090305;28;20039;-59
2021/01/13 03:47:16;;;;;;;1.50;0.70;;;7.10;99.90;;;;;;5088484;28;20041;-59
2021/01/13 03:50:09;;;;;;;3.05;1.00;;;7.10;99.90;;;;;;5091006;28;20041;-60
2021/01/13 03:52:40;;;;;;;2.35;0.80;;;7.10;99.90;;;;;;5088935;28;20016;-59
2021/01/13 03:55:06;;;;;;;4.07;1.08;;;7.00;99.90;;;;;;5089369;28;20550;-59
2021/01/13 03:57:47;;;;;;;3.70;0.90;;;7.10;99.90;;;;;;5087636;28;20036;-60
2021/01/13 04:00:14;;;;;;;3.05;0.90;;;6.90;99.90;;;;;;5083804;28;20024;-60
2021/01/13 04:03:09;;;;;;;5.45;0.90;;;6.90;99.90;;;;;;5086369;28;20024;-59
2021/01/13 04:05:40;;;;;;;3.17;1.10;;;7.10;99.90;;;;;;5083560;28;20027;-59
2021/01/13 04:08:06;;;;;;;1.38;0.63;;;6.80;99.90;;;;;;5079034;28;20081;-59
2021/01/13 04:10:32;;;;;;;5.68;0.93;;;6.80;99.90;;;;;;5077143;28;20036;-59
2021/01/13 04:13:15;;;;;;;1.70;1.00;;;6.90;99.90;;;;;;5087425;28;20049;-59
2021/01/13 04:15:41;;;;;;;2.17;0.90;;;6.80;99.90;;;;;;5086066;28;20028;-60
2021/01/13 04:18:09;;;;;;;2.40;1.00;;;6.90;99.90;;;;;;5092239;28;20040;-59
2021/01/13 04:20:36;;;;;;;1.17;0.93;;;6.90;99.90;;;;;;5087223;28;20029;-59
2021/01/13 04:23:04;;;;;;;3.78;1.42;;;6.90;99.90;;;;;;5091004;28;20016;-59
2021/01/13 04:25:30;;;;;;;3.28;0.90;;;6.90;99.90;;;;;;5089757;28;20107;-71
2021/01/13 04:27:56;;;;;;;1.15;0.98;;;6.80;99.90;;;;;;5091946;28;20056;-60
2021/01/13 04:30:26;;;;;;;3.35;0.80;;;6.70;99.90;;;;;;5088425;28;20078;-70
2021/01/13 04:32:55;;;;;;;1.70;1.08;;;6.70;99.90;;;;;;5091340;28;20035;-59
2021/01/13 04:35:22;;;;;;;1.85;1.02;;;6.70;99.90;;;;;;5084346;28;20493;-59
2021/01/13 04:37:52;;;;;;;2.10;1.00;;;6.60;99.90;;;;;;5089938;28;20024;-60
2021/01/13 04:40:32;;;;;;;2.20;1.02;;;6.70;99.90;;;;;;5089239;28;20564;-59
2021/01/13 04:43:02;;;;;;;4.20;1.20;;;6.60;99.90;;;;;;5089043;28;20452;-60
2021/01/13 04:45:36;;;;;;;3.13;0.88;;;6.60;99.90;;;;;;5088506;28;20365;-70
2021/01/13 04:48:20;;;;;;;1.95;0.80;;;6.50;99.90;;;;;;5085909;28;20078;-60
2021/01/13 04:50:47;;;;;;;1.40;1.20;;;6.40;99.90;;;;;;5083222;28;20388;-60
2021/01/13 04:53:21;;;;;;;1.85;0.93;;;6.50;99.90;;;;;;5090137;28;20388;-60
2021/01/13 04:55:48;;;;;;;3.60;1.27;;;6.50;99.90;;;;;;5076411;28;20028;-70
2021/01/13 04:58:20;;;;;;;1.35;1.05;;;6.50;99.90;;;;;;5079201;28;20024;-59
2021/01/13 05:01:18;;;;;;;1.90;1.10;;;6.60;99.90;;;;;;5087137;28;20020;-59
2021/01/13 05:03:59;;;;;;;2.97;1.17;;;6.60;99.90;;;;;;5079580;28;20028;-64
2021/01/13 05:06:34;;;;;;;4.32;1.20;;;6.70;99.90;;;;;;5087676;28;20046;-64
2021/01/13 05:09:06;;;;;;;1.25;0.80;;;6.70;99.90;;;;;;5077008;28;20095;-71
2021/01/13 05:11:48;;;;;;;2.45;1.38;;;6.80;99.90;;;;;;5080019;28;20032;-70
2021/01/13 05:14:16;;;;;;;1.85;1.10;;;6.80;99.90;;;;;;5089293;28;20472;-60
2021/01/13 05:16:59;;;;;;;1.90;1.33;;;6.70;99.90;;;;;;5085586;28;20051;-69
2021/01/13 05:19:31;;;;;;;1.33;1.10;;;6.80;99.90;;;;;;5075783;28;20074;-64
2021/01/13 05:21:58;;;;;;;1.77;1.20;;;6.70;99.90;;;;;;5086300;28;20036;-60
2021/01/13 05:24:26;;;;;;;2.38;1.33;;;6.80;99.90;;;;;;5090463;28;20061;-60
2021/01/13 05:27:02;;;;;;;2.28;1.00;;;6.70;99.90;;;;;;5084071;28;20020;-60
2021/01/13 05:29:38;;;;;;;1.10;1.00;;;6.80;99.90;;;;;;5089646;28;20024;-60
2021/01/13 05:32:06;;;;;;;2.15;1.20;;;6.90;99.90;;;;;;5085148;28;20040;-60
2021/01/13 05:34:37;;;;;;;2.70;1.50;;;6.90;99.90;;;;;;5083870;28;20130;-59
2021/01/13 05:37:25;;;;;;;1.50;1.40;;;6.90;99.90;;;;;;5077603;28;20028;-59
2021/01/13 05:39:51;;;;;;;3.00;1.92;;;6.90;99.90;;;;;;5088328;28;20013;-59
2021/01/13 05:42:18;;;;;;;1.75;1.20;;;7.00;99.90;;;;;;5085853;28;20078;-59
2021/01/13 05:44:45;;;;;;;2.97;1.15;;;6.90;99.90;;;;;;5088639;28;20024;-64
2021/01/13 05:47:51;;;;;;;2.53;1.50;;;6.90;99.90;;;;;;5088162;28;20385;-65
2021/01/13 05:50:19;;;;;;;3.00;1.20;;;6.80;99.90;;;;;;5077408;28;20035;-66
2021/01/13 05:52:47;;;;;;;2.50;1.60;;;6.90;99.90;;;;;;5086748;28;20024;-70
2021/01/13 05:55:15;;;;;;;3.65;1.33;;;6.90;99.90;;;;;;5076044;28;20099;-69
2021/01/13 05:57:54;;;;;;;2.88;1.35;;;6.90;99.90;;;;;;5089048;28;20020;-69
2021/01/13 06:00:22;;;;;;;2.35;1.30;;;6.90;99.90;;;;;;5087807;28;20065;-70
2021/01/13 06:02:49;;;;;;;3.65;1.50;;;6.80;99.90;;;;;;5080628;28;20051;-70
2021/01/13 06:05:15;;;;;;;2.80;1.23;;;6.80;99.90;;;;;;5075047;28;20019;-69
2021/01/13 06:07:44;;;;;;;4.43;1.65;;;6.80;99.90;;;;;;5080089;28;20043;-59
2021/01/13 06:10:12;;;;;;;3.50;1.55;;;6.70;99.90;;;;;;5074069;28;20020;-69
2021/01/13 06:12:45;;;;;;;2.88;1.88;;;6.80;99.90;;;;;;5087959;28;20100;-66
2021/01/13 06:15:13;;;;;;;2.90;1.55;;;6.70;99.90;;;;;;5085697;28;20099;-61
2021/01/13 06:17:50;;;;;;;4.55;1.55;;;6.70;99.90;;;;;;5085394;28;20100;-61
2021/01/13 06:20:34;;;;;;;1.42;1.30;;;6.70;99.90;;;;;;5077339;28;20016;-67
2021/01/13 06:23:00;;;;;;;2.92;1.33;;;6.70;99.90;;;;;;5089189;28;20020;-61
2021/01/13 06:25:30;;;;;;;2.10;1.40;;;6.60;99.90;;;;;;5079300;28;20537;-60
2021/01/13 06:28:23;;;;;;;2.92;1.80;;;6.70;99.90;;;;;;5078935;28;20025;-60
2021/01/13 06:31:03;;;;;;;6.05;1.92;;;6.80;99.90;;;;;;5078014;28;20035;-59
2021/01/13 06:33:45;;;;;;;2.15;1.48;;;6.90;99.90;;;;;;5072071;28;20043;-68
2021/01/13 06:36:21;;;;;;;1.67;1.58;;;6.80;99.90;;;;;;5082447;28;20028;-64
2021/01/13 06:38:53;;;;;;;2.95;1.70;;;6.80;99.90;;;;;;5075016;28;20472;-68
2021/01/13 06:41:19;;;;;;;2.70;1.90;;;6.80;99.90;;;;;;5082663;28;20012;-60
2021/01/13 06:44:11;;;;;;;3.47;1.75;;;6.80;99.90;;;;;;5088934;28;20502;-59
2021/01/13 06:46:37;;;;;;;2.20;1.80;;;6.60;99.90;;;;;;5083002;28;20039;-59
2021/01/13 06:49:20;;;;;;;2.72;1.88;;;6.60;99.90;;;;;;5076478;28;20032;-69
2021/01/13 06:51:50;;;;;;;2.92;2.17;;;6.60;99.90;;;;;;5078662;28;20586;-59
2021/01/13 06:54:18;;;;;;;3.00;2.63;;;6.70;99.90;;;;;;5089787;28;20027;-60
2021/01/13 06:56:46;;;;;;;4.78;2.83;;;6.70;99.90;;;;;;5079075;28;20029;-60
2021/01/13 06:59:13;;;;;;;2.67;1.90;;;6.70;99.90;;;;;;5089510;28;20472;-59
2021/01/13 07:02:09;;;;;;;2.40;2.17;;;6.60;99.90;;;;;;5084634;28;20032;-59
2021/01/13 07:04:46;;;;;;;4.07;2.23;;;6.60;99.90;;;;;;5074781;28;20088;-59
2021/01/13 07:07:14;;;;;;;2.35;2.15;;;6.70;99.90;;;;;;5084698;28;20316;-59
2021/01/13 07:09:45;;;;;;;2.45;2.25;;;6.70;99.90;;;;;;5087603;28;20024;-59
2021/01/13 07:12:17;;;;;;;2.83;2.63;;;6.60;99.90;;;;;;5083157;28;20024;-59
2021/01/13 07:14:46;;;;;;;2.55;2.35;;;6.60;99.90;;;;;;5087739;28;20021;-59
2021/01/13 07:17:19;;;;;;;3.78;2.60;;;6.60;99.90;;;;;;5080576;28;20036;-59
2021/01/13 07:19:50;;;;;;;5.00;2.63;;;6.60;99.90;;;;;;5091324;28;20056;-59
2021/01/13 07:22:17;;;;;;;3.55;2.70;;;6.60;99.90;;;;;;5089536;28;20646;-59
2021/01/13 07:24:44;;;;;;;6.05;2.60;;;6.70;99.90;;;;;;5084488;28;20039;-59
2021/01/13 07:27:12;;;;;;;5.00;3.10;;;6.60;99.90;;;;;;5091514;28;20477;-59
2021/01/13 07:29:38;;;;;;;4.00;3.30;;;6.70;99.90;;;;;;5084668;28;20035;-61
2021/01/13 07:32:05;;;;;;;3.63;2.97;;;6.70;99.90;;;;;;5086103;28;20040;-59
2021/01/13 07:34:41;;;;;;;3.67;3.38;;;6.80;99.90;;;;;;5088425;28;20021;-60
2021/01/13 07:37:25;;;;;;;4.03;3.60;;;6.70;99.90;;;;;;5083929;28;20027;-59
2021/01/13 07:40:09;;;;;;;3.78;3.47;;;6.80;99.90;;;;;;5076823;28;20023;-59
2021/01/13 07:42:44;;;;;;;4.22;3.40;;;6.80;99.90;;;;;;5085596;28;20456;-59
2021/01/13 07:45:14;;;;;;;3.35;3.00;;;6.80;99.90;;;;;;5080565;28;20055;-59
2021/01/13 07:48:10;;;;;;;3.95;3.28;;;6.90;99.90;;;;;;5084420;28;20511;-59
2021/01/13 07:50:43;;;;;;;3.87;3.43;;;6.80;99.90;;;;;;5079673;28;20119;-59
2021/01/13 07:53:11;;;;;;;4.25;3.53;;;6.90;99.90;;;;;;5093019;28;20258;-59
2021/01/13 07:55:53;;;;;;;5.13;3.40;;;6.80;99.90;;;;;;5086482;28;20029;-59
2021/01/13 07:58:21;;;;;;;3.90;3.53;;;6.90;99.90;;;;;;5092612;28;20107;-60
2021/01/13 08:01:17;;;;;;;4.70;3.92;;;6.90;99.90;;;;;;5087457;28;20056;-59
2021/01/13 08:03:49;;;;;;;7.57;4.32;;;6.90;99.90;;;;;;5076295;28;20115;-59
2021/01/13 08:06:21;;;;;;;4.70;4.28;;;7.00;99.90;;;;;;5085469;28;20491;-59
2021/01/13 08:09:08;;;;;;;5.18;4.68;;;6.90;99.90;;;;;;5091506;28;20024;-59
2021/01/13 08:11:33;;;;;;;;;;;7.00;99.90;;;;;;5089561;28;20044;-59
2021/01/13 08:14:35;;;;;;;4.00;3.70;;;6.90;99.90;;;;;;5091318;28;20288;-59
2021/01/13 08:17:39;;;;;;;12.25;4.10;;;7.10;99.90;;;;;;5082854;28;20474;-58
2021/01/13 08:20:30;;;;;;;4.60;3.72;;;6.90;99.90;;;;;;5080071;28;20027;-59
2021/01/13 08:23:10;;;;;;;5.25;3.30;;;7.10;99.90;;;;;;5080930;28;20043;-59
2021/01/13 08:25:37;;;;;;;4.00;2.80;;;6.90;99.90;;;;;;5085016;28;20043;-59
2021/01/13 08:28:05;;;;;;;5.38;3.00;;;6.90;99.90;;;;;;5090039;28;20591;-59
2021/01/13 08:30:31;;;;;;;6.22;3.80;;;7.00;99.90;;;;;;5087663;28;20039;-59
2021/01/13 08:32:57;;;;;;;4.88;3.47;;;7.00;99.90;;;;;;5084840;28;20055;-60
2021/01/13 08:35:46;;;;;;;6.40;3.13;;;7.10;99.90;;;;;;5085649;28;20036;-59
2021/01/13 08:38:12;;;;;;;4.35;3.35;;;7.30;99.90;;;;;;5082962;28;20039;-59
2021/01/13 08:40:38;;;;;;;7.65;3.78;;;7.30;99.90;;;;;;5088975;28;20025;-59
2021/01/13 08:43:15;;;;;;;5.38;3.17;;;7.30;99.90;;;;;;5090907;28;20020;-61
2021/01/13 08:45:48;;;;;;;6.60;3.88;;;7.40;99.90;;;;;;5088975;28;20032;-59
2021/01/13 08:48:18;;;;;;;2.63;2.40;;;7.40;99.90;;;;;;5089524;28;20020;-59
2021/01/13 08:51:06;;;;;;;3.67;3.13;;;7.30;99.90;;;;;;5084372;28;20119;-61
2021/01/13 08:53:33;;;;;;;3.50;3.20;;;7.40;99.90;;;;;;5080764;28;20017;-59
2021/01/13 08:55:59;;;;;;;4.18;3.35;;;7.50;99.90;;;;;;5083588;28;20024;-59
2021/01/13 08:58:29;;;;;;;7.28;3.60;;;7.50;99.90;;;;;;5090858;28;20016;-63
2021/01/13 09:01:05;;;;;;;4.40;2.60;;;7.50;99.90;;;;;;5085010;28;20115;-59
2021/01/13 09:03:41;;;;;;;3.63;2.75;;;7.50;99.90;;;;;;5089827;28;20020;-60
2021/01/13 09:06:24;;;;;;;3.75;3.20;;;7.60;99.90;;;;;;5083364;28;20108;-59
2021/01/13 09:08:57;;;;;;;2.60;2.15;;;7.70;99.90;;;;;;5085122;28;20047;-59
2021/01/13 09:11:41;;;;;;;3.20;2.80;;;7.80;99.90;;;;;;5078098;28;20036;-60
2021/01/13 09:14:22;;;;;;;3.67;2.35;;;7.80;99.90;;;;;;5078952;28;20020;-60
2021/01/13 09:16:50;;;;;;;3.25;2.65;;;7.80;99.90;;;;;;5088498;28;20056;-59
2021/01/13 09:19:30;;;;;;;3.50;2.38;;;7.70;99.90;;;;;;5090127;28;20024;-59
2021/01/13 09:22:00;;;;;;;5.03;3.03;;;7.90;99.90;;;;;;5088751;28;20040;-60
2021/01/13 09:24:32;;;;;;;4.95;2.58;;;7.90;99.90;;;;;;5090393;28;20031;-60
2021/01/13 09:27:01;;;;;;;4.10;3.40;;;8.00;99.90;;;;;;5082151;28;20078;-64
2021/01/13 09:29:28;;;;;;;6.85;2.90;;;8.10;99.90;;;;;;5086129;28;20047;-65
2021/01/13 09:32:23;;;;;;;4.10;2.42;;;8.00;99.90;;;;;;5089777;28;20020;-62
2021/01/13 09:34:53;;;;;;;2.10;1.90;;;8.20;99.90;;;;;;5071323;28;20512;-61
2021/01/13 09:37:22;;;;;;;3.13;2.10;;;8.20;99.90;;;;;;5084341;28;20396;-61
2021/01/13 09:40:05;;;;;;;5.75;2.05;;;8.30;99.90;;;;;;5075230;28;20029;-69
2021/01/13 09:42:57;;;;;;;2.60;1.75;;;8.20;99.90;;;;;;5079755;28;20378;-62
2021/01/13 09:45:35;;;;;;;2.53;1.77;;;8.20;99.90;;;;;;5070389;28;20032;-62
2021/01/13 09:48:17;;;;;;;1.90;1.50;;;8.30;99.90;;;;;;5076023;28;20051;-62
2021/01/13 09:50:44;;;;;;;2.28;1.73;;;8.30;99.90;;;;;;5079854;28;20028;-62
2021/01/13 09:53:12;;;;;;;5.18;1.98;;;8.20;99.90;;;;;;5088793;28;20024;-62
2021/01/13 09:55:39;;;;;;;2.30;1.38;;;8.30;99.90;;;;;;5082277;28;20028;-62
2021/01/13 09:58:16;;;;;;;2.65;1.48;;;8.40;99.90;;;;;;5090400;28;20756;-69
2021/01/13 10:00:42;;;;;;;1.90;1.45;;;8.40;99.90;;;;;;5088103;28;20019;-62
2021/01/13 10:03:12;;;;;;;1.77;1.50;;;8.30;99.90;;;;;;5089178;28;20158;-62
2021/01/13 10:05:38;;;;;;;3.72;2.00;;;8.40;99.90;;;;;;5087348;28;20033;-61
2021/01/13 10:08:04;;;;;;;2.90;1.45;;;8.40;99.90;;;;;;5088107;28;20028;-62
2021/01/13 10:10:30;;;;;;;3.10;1.95;;;8.50;99.90;;;;;;5086143;28;20060;-62
2021/01/13 10:12:57;;;;;;;3.90;1.58;;;8.40;99.90;;;;;;5087106;28;20016;-68
2021/01/13 10:15:23;;;;;;;3.70;1.42;;;8.50;99.90;;;;;;5084887;28;20016;-62
2021/01/13 10:17:49;;;;;;;2.92;2.00;;;8.60;99.90;;;;;;5086266;28;20091;-62
2021/01/13 10:20:16;;;;;;;4.90;2.15;;;8.60;99.90;;;;;;5084958;28;20449;-62
2021/01/13 10:22:43;;;;;;;3.53;1.95;;;8.70;99.90;;;;;;5083972;28;20078;-61
2021/01/13 10:25:09;;;;;;;2.55;1.40;;;8.60;99.90;;;;;;5085652;28;20016;-63
2021/01/13 10:27:43;;;;;;;3.63;1.48;;;8.60;99.90;;;;;;5089291;28;20504;-65
2021/01/13 10:30:10;;;;;;;2.47;1.40;;;8.70;99.90;;;;;;5084058;28;20024;-64
2021/01/13 10:33:05;;;;;;;3.17;1.02;;;8.80;99.90;;;;;;5086589;28;20052;-68
2021/01/13 10:35:39;;;;;;;3.78;1.30;;;8.80;99.90;;;;;;5043943;28;20378;-63
2021/01/13 10:38:05;;;;;;;2.58;1.48;;;8.90;99.90;;;;;;5077042;28;20119;-74
2021/01/13 10:40:31;;;;;;;4.10;1.30;;;9.00;99.90;;;;;;5076055;28;20451;-65
2021/01/13 10:42:57;;;;;;;2.10;1.10;;;9.00;99.90;;;;;;5097277;28;20048;-64
2021/01/13 10:45:24;;;;;;;3.20;1.00;;;9.10;99.90;;;;;;5086760;28;20031;-71
2021/01/13 10:47:56;;;;;;;4.45;1.17;;;9.00;99.90;;;;;;5086241;28;20408;-65
2021/01/13 10:50:32;;;;;;;4.05;1.02;;;9.00;99.90;;;;;;5086325;28;20039;-74
2021/01/13 10:52:59;;;;;;;;;;;9.00;99.90;;;;;;5081272;28;20477;-69
2021/01/13 10:55:28;;;;;;;3.38;0.73;;;9.00;99.90;;;;;;5074852;28;20330;-63
2021/01/13 10:57:55;;;;;;;1.90;1.23;;;9.00;99.90;;;;;;5087684;28;20029;-64
2021/01/13 11:00:30;;;;;;;1.17;0.90;;;9.00;99.90;;;;;;5083803;28;20424;-65
2021/01/13 11:02:57;;;;;;;3.03;1.00;;;8.90;99.90;;;;;;5085054;28;20035;-64
2021/01/13 11:05:24;;;;;;;3.58;1.35;;;8.90;99.90;;;;;;5083684;28;20032;-64
2021/01/13 11:07:52;;;;;;;2.95;1.70;;;9.10;99.90;;;;;;5080774;28;20020;-64
2021/01/13 11:10:21;;;;;;;4.00;1.80;;;9.10;99.90;;;;;;5084047;28;20645;-64
2021/01/13 11:13:00;;;;;;;1.92;1.63;;;9.00;99.90;;;;;;5083670;28;20606;-65
2021/01/13 11:15:26;;;;;;;2.63;1.30;;;9.10;99.90;;;;;;5083139;28;20016;-64
2021/01/13 11:17:56;;;;;;;2.17;1.65;;;9.00;99.90;;;;;;5089309;28;20044;-64
2021/01/13 11:20:23;;;;;;;2.08;0.90;;;9.00;99.90;;;;;;5083602;28;20039;-64
2021/01/13 11:22:50;;;;;;;1.65;1.00;;;9.00;99.90;;;;;;5089173;28;20530;-68
2021/01/13 11:25:32;;;;;;;2.80;1.10;;;9.10;99.90;;;;;;5086047;28;20028;-64
2021/01/13 11:28:00;;;;;;;4.25;0.90;;;9.10;99.90;;;;;;5082258;28;20047;-64
2021/01/13 11:30:27;;;;;;;2.38;0.80;;;9.10;99.90;;;;;;5101701;28;20506;-64
2021/01/13 11:32:55;;;;;;;1.92;1.40;;;9.20;99.90;;;;;;5087475;28;20026;-73
2021/01/13 11:35:27;;;;;;;4.00;1.25;;;9.20;99.90;;;;;;5086674;28;20399;-66
2021/01/13 11:38:31;;;;;;;1.52;0.98;;;9.20;99.90;;;;;;5083649;28;20028;-65
2021/01/13 11:41:31;;;;;;;2.45;1.38;;;9.30;99.90;;;;;;5084995;28;20028;-65
2021/01/13 11:44:26;;;;;;;2.90;0.98;;;9.30;99.90;;;;;;5076770;28;20025;-65
2021/01/13 11:46:58;;;;;;;3.95;1.25;;;9.30;99.90;;;;;;5083749;28;20027;-72
2021/01/13 11:49:37;;;;;;;2.92;1.30;;;9.40;99.90;;;;;;5087567;28;22269;-63
2021/01/13 11:52:07;;;;;;;1.48;0.95;;;9.30;99.90;;;;;;5083606;28;20028;-63
2021/01/13 11:54:34;;;;;;;2.42;1.23;;;9.30;99.90;;;;;;5069363;28;20028;-74
2021/01/13 11:57:21;;;;;;;4.18;1.42;;;9.30;99.90;;;;;;5082667;28;20059;-64
2021/01/13 11:59:48;;;;;;;3.05;1.00;;;9.30;99.90;;;;;;5085021;28;20028;-64
2021/01/13 12:02:22;;;;;;;2.53;1.48;;;9.50;99.90;;;;;;5079485;28;20099;-65
2021/01/13 12:04:49;;;;;;;2.38;1.30;;;9.50;99.90;;;;;;5073394;28;20065;-74
2021/01/13 12:07:15;;;;;;;3.72;1.40;;;9.50;99.90;;;;;;5092419;28;20031;-64
2021/01/13 12:09:42;;;;;;;1.98;1.33;;;9.40;99.90;;;;;;5080286;28;20496;-64
2021/01/13 12:12:08;;;;;;;2.00;1.13;;;9.40;99.90;;;;;;5089733;28;20036;-72
2021/01/13 12:14:44;;;;;;;4.20;1.55;;;9.50;99.90;;;;;;5090457;28;20027;-64
2021/01/13 12:17:11;;;;;;;2.58;1.30;;;9.40;99.90;;;;;;5090109;28;20570;-63
2021/01/13 12:19:41;;;;;;;2.03;1.30;;;9.50;99.90;;;;;;5090873;28;20492;-63
2021/01/13 12:22:08;;;;;;;1.95;1.00;;;9.60;99.90;;;;;;5092152;28;20048;-64
2021/01/13 12:24:42;;;;;;;3.72;1.02;;;9.50;99.90;;;;;;5091253;28;20484;-64
2021/01/13 12:27:22;;;;;;;4.75;1.27;;;9.50;99.90;;;;;;5087385;28;20021;-63
2021/01/13 12:30:14;;;;;;;3.50;1.20;;;9.60;99.90;;;;;;5090257;28;20482;-64
2021/01/13 12:32:41;;;;;;;3.92;1.58;;;9.50;99.90;;;;;;5090676;28;20028;-64
2021/01/13 12:35:10;;;;;;;1.38;0.80;;;9.50;99.90;;;;;;5088955;28;20024;-64
2021/01/13 12:37:49;;;;;;;0.85;0.60;;;9.40;99.90;;;;;;5088887;28;20020;-64
2021/01/13 12:40:26;;;;;;;1.45;0.95;;;9.50;99.90;;;;;;5089720;28;20020;-72
2021/01/13 12:42:52;;;;;;;4.18;1.48;;;9.50;99.90;;;;;;5082345;28;20021;-63
2021/01/13 12:45:17;;;;;;;2.80;1.33;;;9.60;99.90;;;;;;5084472;28;20063;-65
2021/01/13 12:47:52;;;;;;;4.22;1.25;;;9.60;99.90;;;;;;5085246;28;20501;-64
2021/01/13 12:50:18;;;;;;;3.00;1.02;;;9.60;99.90;;;;;;5086928;28;20021;-65
2021/01/13 12:52:43;;;;;;;1.50;1.00;;;9.70;99.90;;;;;;5090713;28;20032;-64
2021/01/13 12:55:09;;;;;;;0.88;0.75;;;9.80;99.90;;;;;;5089878;28;20440;-64
2021/01/13 12:57:35;;;;;;;2.47;1.00;;;10.00;99.90;;;;;;5083869;28;20099;-64
2021/01/13 13:00:00;;;;;;;4.25;1.15;;;10.00;99.90;;;;;;5090023;28;20024;-64
2021/01/13 13:02:26;;;;;;;4.65;0.85;;;10.10;99.90;;;;;;5082739;28;20065;-63
2021/01/13 13:04:51;;;;;;;2.40;1.10;;;10.10;99.90;;;;;;5089783;28;20012;-64
2021/01/13 13:07:17;;;;;;;2.33;1.00;;;10.00;99.90;;;;;;5107516;28;20028;-64
2021/01/13 13:09:44;;;;;;;1.55;1.10;;;10.20;99.90;;;;;;5070416;28;20404;-64
2021/01/13 13:12:09;;;;;;;1.40;0.70;;;10.20;99.90;;;;;;5084030;28;20031;-64
2021/01/13 13:14:35;;;;;;;6.13;1.00;;;10.20;99.90;;;;;;5075131;28;20032;-63
2021/01/13 13:17:01;;;;;;;2.05;0.73;;;10.30;99.90;;;;;;5085804;28;20044;-64
2021/01/13 13:19:26;;;;;;;1.77;0.88;;;10.20;99.90;;;;;;5089061;28;20093;-63
2021/01/13 13:21:54;;;;;;;1.15;0.50;;;10.30;99.90;;;;;;5088122;28;20130;-62
2021/01/13 13:24:20;;;;;;;1.98;0.60;;;10.40;99.90;;;;;;5089999;28;20028;-72